createdAt,value
2019-04-16T00:03:26.760Z,8.14
2019-04-16T00:08:35.320Z,7.69
2019-04-16T00:13:43.453Z,7.98
2019-04-16T00:18:57.980Z,8.09
2019-04-16T00:23:59.693Z,8.19
2019-04-16T00:29:08.220Z,8.07
2019-04-16T00:34:16.867Z,8.21
2019-04-16T00:39:25.661Z,8.06
2019-04-16T00:44:34.430Z,8.17
2019-04-16T00:49:42.806Z,8.20
2019-04-16T00:54:52.537Z,8.79
2019-04-16T01:00:01.518Z,8.46
2019-04-16T01:05:10.158Z,8.63
2019-04-16T01:10:18.803Z,8.54
2019-04-16T01:15:29.183Z,8.96
2019-04-16T01:20:35.016Z,8.46
2019-04-16T01:25:43.700Z,8.55
2019-04-16T01:30:52.070Z,8.44
2019-04-16T01:36:01.103Z,8.43
2019-04-16T01:41:09.272Z,8.87
2019-04-16T01:46:18.007Z,8.63
2019-04-16T01:51:27.042Z,8.72
2019-04-16T01:56:35.836Z,8.91
2019-04-16T02:01:44.291Z,8.63
2019-04-16T02:06:54.313Z,8.50
2019-04-16T02:12:00.788Z,8.79
2019-04-16T02:17:08.713Z,8.73
2019-04-16T02:22:16.407Z,9.00
2019-04-16T02:27:26.291Z,8.50
2019-04-16T02:32:32.611Z,8.68
2019-04-16T02:37:40.515Z,8.73
2019-04-16T02:42:49.094Z,8.45
2019-04-16T02:47:57.566Z,8.59
2019-04-16T02:53:06.267Z,8.20
2019-04-16T02:58:14.888Z,8.29
2019-04-16T03:03:24.879Z,8.75
2019-04-16T03:08:35.635Z,8.50
2019-04-16T03:13:38.996Z,8.73
2019-04-16T03:18:48.000Z,8.31
2019-04-16T03:23:54.010Z,8.45
2019-04-16T03:29:01.696Z,8.51
2019-04-16T03:34:09.319Z,8.46
2019-04-16T03:39:18.206Z,8.21
2019-04-16T03:44:27.395Z,8.41
2019-04-16T03:49:36.073Z,8.41
2019-04-16T03:54:44.208Z,8.27
2019-04-16T03:59:51.802Z,8.10
2019-04-16T04:05:06.135Z,8.30
2019-04-16T04:10:09.710Z,8.17
2019-04-16T04:15:18.224Z,8.71
2019-04-16T04:20:26.531Z,8.40
2019-04-16T04:25:36.255Z,8.87
2019-04-16T04:30:43.352Z,8.58
2019-04-16T04:35:52.221Z,8.74
2019-04-16T04:40:59.837Z,8.65
2019-04-16T04:46:06.401Z,8.58
2019-04-16T04:51:14.817Z,8.40
2019-04-16T04:56:27.687Z,8.71
2019-04-16T05:01:31.331Z,8.48
2019-04-16T05:06:39.771Z,8.49
2019-04-16T05:11:49.492Z,8.25
2019-04-16T05:16:55.528Z,8.68
2019-04-16T05:22:03.277Z,8.17
2019-04-16T05:27:11.983Z,8.28
2019-04-16T05:32:20.570Z,8.24
2019-04-16T05:37:29.246Z,8.41
2019-04-16T05:42:37.894Z,8.12
2019-04-16T05:47:49.019Z,8.34
2019-04-16T05:52:54.348Z,7.99
2019-04-16T05:58:02.753Z,8.16
2019-04-16T06:03:11.524Z,8.35
2019-04-16T06:08:19.808Z,8.18
2019-04-16T06:13:27.613Z,8.41
2019-04-16T06:18:37.938Z,8.85
2019-04-16T06:23:43.674Z,8.27
2019-04-16T06:28:54.935Z,8.70
2019-04-16T06:33:59.921Z,8.47
2019-04-16T06:39:08.564Z,8.56
2019-04-16T06:44:17.063Z,8.47
2019-04-16T06:49:25.548Z,8.56
2019-04-16T06:54:34.401Z,8.51
2019-04-16T06:59:42.427Z,9.12
2019-04-16T07:04:50.118Z,8.63
2019-04-16T07:09:58.884Z,8.66
2019-04-16T07:15:07.619Z,8.63
2019-04-16T07:20:16.060Z,9.05
2019-04-16T07:25:27.145Z,8.70
2019-04-16T07:30:32.500Z,9.31
2019-04-16T07:35:40.764Z,9.08
2019-04-16T07:40:49.682Z,9.30
2019-04-16T07:45:57.997Z,9.73
2019-04-16T07:51:06.410Z,10.07
2019-04-16T07:56:14.394Z,9.87
2019-04-16T08:01:22.826Z,9.81
2019-04-16T08:06:31.608Z,10.22
2019-04-16T08:11:40.013Z,10.42
2019-04-16T08:16:48.502Z,10.73
2019-04-16T08:21:57.055Z,10.00
2019-04-16T08:27:05.829Z,10.30
2019-04-16T08:32:16.014Z,10.36
2019-04-16T08:37:22.003Z,10.70
2019-04-16T08:42:43.676Z,10.57
2019-04-16T08:47:44.524Z,10.25
2019-04-16T08:52:48.714Z,10.56
2019-04-16T08:57:57.092Z,11.03
2019-04-16T09:03:06.229Z,10.53
2019-04-16T09:08:14.842Z,10.07
2019-04-16T09:13:23.405Z,10.58
2019-04-16T09:18:31.683Z,10.42
2019-04-16T09:23:39.492Z,10.44
2019-04-16T09:28:47.904Z,10.63
2019-04-16T09:33:57.303Z,10.69
2019-04-16T09:39:03.394Z,10.58
2019-04-16T09:44:11.889Z,10.36
2019-04-16T09:49:20.566Z,10.41
2019-04-16T09:54:28.973Z,9.97
2019-04-16T09:59:37.349Z,10.61
2019-04-16T10:04:45.907Z,10.21
2019-04-16T10:09:55.219Z,10.37
2019-04-16T10:15:02.574Z,9.96
2019-04-16T10:20:11.096Z,10.18
2019-04-16T10:25:19.394Z,10.04
2019-04-16T10:30:30.005Z,9.85
2019-04-16T10:35:35.395Z,10.00
2019-04-16T10:40:43.799Z,10.05
2019-04-16T10:45:51.597Z,9.35
2019-04-16T10:50:59.410Z,9.37
2019-04-16T10:56:07.927Z,9.26
2019-04-16T11:01:15.718Z,9.61
2019-04-16T11:06:24.385Z,9.90
2019-04-16T11:11:32.703Z,8.31
2019-04-16T11:16:40.596Z,8.09
2019-04-16T11:21:49.001Z,8.45
2019-04-16T11:26:57.901Z,8.61
2019-04-16T11:32:06.267Z,8.72
2019-04-16T11:37:15.151Z,8.06
2019-04-16T11:42:24.127Z,7.19
2019-04-16T11:47:34.141Z,7.02
2019-04-16T11:52:40.052Z,7.48
2019-04-16T11:57:46.781Z,7.35
2019-04-16T12:02:55.322Z,7.32
2019-04-16T12:08:04.098Z,7.18
2019-04-16T12:13:12.736Z,6.81
2019-04-16T12:18:20.800Z,7.12
2019-04-16T12:23:29.408Z,7.25
2019-04-16T12:28:42.309Z,7.89
2019-04-16T12:33:46.496Z,8.04
2019-04-16T12:38:55.859Z,8.64
2019-04-16T12:44:03.610Z,8.71
2019-04-16T12:49:11.526Z,8.64
2019-04-16T12:54:25.248Z,9.35
2019-04-16T12:59:27.860Z,9.93
2019-04-16T13:04:36.562Z,9.60
2019-04-16T13:09:44.909Z,9.17
2019-04-16T13:15:00.628Z,8.90
2019-04-16T13:20:01.512Z,8.24
2019-04-16T13:25:09.197Z,9.71
2019-04-16T13:30:17.007Z,10.52
2019-04-16T13:35:25.625Z,9.52
2019-04-16T13:40:34.150Z,8.92
2019-04-16T13:45:42.797Z,9.76
2019-04-16T13:50:52.101Z,9.11
2019-04-16T13:56:00.351Z,10.26
2019-04-16T14:01:10.478Z,9.83
2019-04-16T14:06:17.143Z,9.75
2019-04-16T14:11:26.279Z,9.51
2019-04-16T14:16:35.158Z,9.47
2019-04-16T14:21:43.838Z,9.07
2019-04-16T14:26:51.728Z,9.06
2019-04-16T14:32:00.690Z,9.20
2019-04-16T14:37:09.175Z,8.86
2019-04-16T14:42:19.170Z,9.29
2019-04-16T14:47:26.649Z,9.59
2019-04-16T14:52:34.720Z,9.20
2019-04-16T14:57:43.881Z,8.50
2019-04-16T15:02:51.952Z,8.60
2019-04-16T15:08:02.103Z,8.34
2019-04-16T15:13:01.652Z,8.16
2019-04-16T15:18:10.892Z,7.72
2019-04-16T15:23:18.961Z,8.05
2019-04-16T15:28:27.716Z,7.71
2019-04-16T15:33:38.903Z,7.77
2019-04-16T15:38:44.413Z,7.06
2019-04-16T15:43:52.552Z,7.25
2019-04-16T15:49:01.354Z,7.02
2019-04-16T15:54:10.231Z,6.64
2019-04-16T15:59:18.397Z,6.70
2019-04-16T16:04:27.373Z,6.19
2019-04-16T16:09:37.516Z,6.12
2019-04-16T16:14:43.226Z,6.07
2019-04-16T16:19:51.910Z,5.59
2019-04-16T16:24:59.949Z,5.72
2019-04-16T16:30:08.722Z,5.88
2019-04-16T16:35:17.814Z,6.00
2019-04-16T16:40:24.357Z,6.22
2019-04-16T16:45:32.253Z,6.12
2019-04-16T16:50:43.962Z,5.81
2019-04-16T16:55:49.038Z,5.31
2019-04-16T17:00:59.800Z,4.83
2019-04-16T17:06:05.372Z,4.71
2019-04-16T17:11:16.007Z,3.83
2019-04-16T17:16:21.978Z,2.98
2019-04-16T17:21:30.261Z,2.94
2019-04-16T17:26:38.792Z,5.37
2019-04-16T17:31:47.796Z,6.03
2019-04-16T17:36:56.206Z,5.11
2019-04-16T17:42:05.693Z,3.32
2019-04-16T17:47:30.945Z,2.69
2019-04-16T17:52:21.784Z,1.99
2019-04-16T17:57:30.520Z,1.58
2019-04-16T18:02:38.834Z,1.47
2019-04-16T18:07:47.331Z,1.24
2019-04-16T18:12:56.620Z,1.12
2019-04-16T18:18:04.368Z,1.20
2019-04-16T18:23:13.076Z,1.15
2019-04-16T18:28:22.758Z,1.10
2019-04-16T18:33:37.944Z,1.18
2019-04-16T18:38:37.052Z,1.20
2019-04-16T18:43:46.535Z,1.13
2019-04-16T18:48:55.801Z,1.24
2019-04-16T18:54:06.109Z,1.20
2019-04-16T18:59:03.959Z,1.31
2019-04-16T19:04:13.594Z,1.38
2019-04-16T19:09:22.125Z,1.40
2019-04-16T19:14:36.325Z,1.35
2019-04-16T19:19:31.384Z,1.36
2019-04-16T19:24:39.777Z,1.30
2019-04-16T19:29:48.275Z,1.41
2019-04-16T19:35:08.760Z,1.71
2019-04-16T19:40:04.550Z,1.89
2019-04-16T19:45:12.926Z,1.70
2019-04-16T19:50:21.689Z,2.15
2019-04-16T19:55:30.186Z,2.56
2019-04-16T20:00:38.986Z,2.78
2019-04-16T20:05:47.508Z,3.06
2019-04-16T20:10:56.128Z,3.30
2019-04-16T20:16:04.556Z,3.18
2019-04-16T20:21:13.333Z,3.30
2019-04-16T20:26:21.378Z,3.39
2019-04-16T20:31:29.995Z,3.68
2019-04-16T20:36:38.791Z,3.77
2019-04-16T20:41:47.201Z,4.23
2019-04-16T20:46:58.284Z,4.52
2019-04-16T20:52:03.408Z,4.61
2019-04-16T20:57:11.963Z,4.61
2019-04-16T21:02:20.701Z,4.37
2019-04-16T21:07:30.279Z,4.00
2019-04-16T21:12:39.543Z,4.37
2019-04-16T21:17:48.774Z,4.25
2019-04-16T21:23:01.939Z,4.23
2019-04-16T21:28:07.387Z,4.10
2019-04-16T21:33:17.713Z,4.60
2019-04-16T21:38:24.323Z,4.97
2019-04-16T21:43:35.724Z,5.20
2019-04-16T21:48:42.021Z,4.91
2019-04-16T21:53:51.271Z,4.37
2019-04-16T21:59:02.937Z,3.99
2019-04-16T22:04:13.222Z,4.02
2019-04-16T22:09:18.838Z,3.96
2019-04-16T22:14:28.449Z,3.50
2019-04-16T22:19:52.979Z,3.59
2019-04-16T22:24:46.821Z,3.88
2019-04-16T22:29:56.362Z,3.64
2019-04-16T22:35:05.796Z,3.45
2019-04-16T22:40:15.193Z,3.56
2019-04-16T22:45:25.424Z,3.53
2019-04-16T22:50:24.171Z,3.53
2019-04-16T22:55:32.706Z,3.43
2019-04-16T23:00:44.480Z,3.60
2019-04-16T23:05:51.107Z,3.55
2019-04-16T23:10:59.868Z,3.65
2019-04-16T23:16:08.395Z,3.32
2019-04-16T23:21:17.669Z,3.29
2019-04-16T23:26:26.186Z,3.36
2019-04-16T23:31:34.789Z,3.39
2019-04-16T23:36:44.603Z,3.15
2019-04-16T23:41:50.998Z,3.27
2019-04-16T23:46:59.461Z,2.95
2019-04-16T23:52:08.358Z,3.36
2019-04-16T23:57:16.851Z,3.30
